Hartford Brainard Airport
KHFD : now visible

Aeroporto :











RITROVATECI SU...

 
LOGIN :

Iscrizione | Disclaimer

   EN    FR    IT 

 









Sommario :    VFR   VFR Marginale   IFR   IFR Intensivo   IFR Molto Intensivo
Visibilità : 
Base nubi : 
>= 8 km
>= 3000ft
5 / 8 km
1000 / 3000 ft
1500m / 5 km
500 / 1000 ft
800 / 1500m
200 / 500 ft
< 800m
< 200 ft
Simboli :   Temporali  Nebbia  Neve Forte  Precipitazioni Forti  Vento > 20 kt







- Altitudine del aeroporto : 18 ft


KHFD - Hartford Brainard

ULTIMO METAR :
  • 251153Z 02007KT 10SM CLR 17/14 A3031 RMK AO2 SLP262 T01720139 10178 20156 53007

METARs OBSOLETI :
  • 251053Z 01007KT 10SM OVC060 16/13 A3029 RMK AO2 SLP257 T01610128
  • 250953Z 03005KT 10SM OVC050 16/13 A3028 RMK AO2 SLP255 T01560128
  • 250907Z AUTO 01005KT 10SM SCT025 16/13 A3028 RMK AO2 T01560128

TAF N/A
Nessun NOTAM noto per questo aeroporto.



MetMap, La meteo Aeronautica in un colpo d'occhio ! - Copyright ORBIFLY Dicembre 2007 - Disclaimer

ORBIFLY MET'MAP TEAM :

Programmazione e sviluppo : Alexandra Zaïnal
Concezione e sviluppo : Baudouin d'Aumeries
Co-Programmazione e sviluppo : Marc-Olivier Méhu
Supporto tecnico e logistico : Manuel Goepfert
Aiuto per la traduzione : Arnaldo La Scala

Contatto : metmap@orbifly.com




FONTI E CREDITI :

   NOAA       Earth
Advisory